Time;durP1;ratioP1;P1;durP2;ratioP2;P2;SDS_P1;SDS_P2;PMS_P1;PMS_P2;Temp;Humidity;BMP_temperature;BMP_pressure;BME280_temperature;BME280_humidity;BME280_pressure;Samples;Min_cycle;Max_cycle;Signal;HPM_P1;HPM_P2
2023/04/11 00:02:16;;;;;;;2.27;2.03;;;14.50;99.90;;;;;;5079015;28;20478;-44
2023/04/11 00:04:42;;;;;;;3.33;1.90;;;14.60;99.90;;;;;;5079889;28;20470;-44
2023/04/11 00:07:08;;;;;;;4.93;1.97;;;14.60;99.90;;;;;;5079956;28;20703;-44
2023/04/11 00:09:34;;;;;;;2.30;2.10;;;14.60;99.90;;;;;;5079859;28;20189;-44
2023/04/11 00:12:03;;;;;;;2.70;1.97;;;14.60;99.90;;;;;;5080619;28;20431;-44
2023/04/11 00:14:32;;;;;;;2.53;1.60;;;14.60;99.90;;;;;;5078960;28;20451;-44
2023/04/11 00:16:59;;;;;;;4.47;1.90;;;14.60;99.90;;;;;;5079563;28;20484;-46
2023/04/11 00:19:28;;;;;;;2.90;2.40;;;14.60;99.90;;;;;;5079350;28;21212;-47
2023/04/11 00:21:59;;;;;;;2.60;1.93;;;14.60;99.90;;;;;;5079296;28;20789;-44
2023/04/11 00:24:25;;;;;;;2.67;2.17;;;14.60;99.90;;;;;;5079273;28;20663;-45
2023/04/11 00:26:51;;;;;;;2.93;2.23;;;14.60;99.90;;;;;;5079379;28;20467;-44
2023/04/11 00:29:17;;;;;;;2.27;1.60;;;14.60;99.90;;;;;;5074971;28;20466;-45
2023/04/11 00:31:42;;;;;;;2.53;2.17;;;14.50;99.90;;;;;;5076224;28;20732;-44
2023/04/11 00:34:08;;;;;;;4.17;2.03;;;14.50;99.90;;;;;;5077485;28;20258;-45
2023/04/11 00:36:34;;;;;;;3.30;1.90;;;14.50;99.90;;;;;;5079329;28;20223;-46
2023/04/11 00:39:02;;;;;;;3.50;2.13;;;14.50;99.90;;;;;;5079314;28;20234;-45
2023/04/11 00:41:28;;;;;;;3.53;2.17;;;14.50;99.90;;;;;;5077934;28;20185;-44
2023/04/11 00:43:54;;;;;;;3.80;1.93;;;14.50;99.90;;;;;;5079429;28;20774;-44
2023/04/11 00:46:20;;;;;;;3.10;2.17;;;14.50;99.90;;;;;;5078847;28;20363;-46
2023/04/11 00:48:46;;;;;;;2.90;2.27;;;14.50;99.90;;;;;;5079261;28;20275;-44
2023/04/11 00:51:13;;;;;;;2.93;1.67;;;14.50;99.90;;;;;;5077376;28;20478;-44
2023/04/11 00:53:39;;;;;;;2.97;2.17;;;14.50;99.90;;;;;;5078923;28;20428;-46
2023/04/11 00:56:05;;;;;;;4.43;2.20;;;14.50;99.90;;;;;;5077956;28;20446;-45
2023/04/11 00:58:32;;;;;;;2.90;2.20;;;14.50;99.90;;;;;;5078088;28;20861;-43
2023/04/11 01:00:59;;;;;;;2.47;1.77;;;14.50;99.90;;;;;;5078712;28;20435;-43
2023/04/11 01:03:25;;;;;;;3.30;2.53;;;14.50;99.90;;;;;;5079346;28;20798;-43
2023/04/11 01:05:52;;;;;;;3.33;2.03;;;14.50;99.90;;;;;;5078092;28;20480;-44
2023/04/11 01:08:19;;;;;;;3.37;2.07;;;14.50;99.90;;;;;;5076494;28;20185;-46
2023/04/11 01:10:45;;;;;;;2.80;2.27;;;14.50;99.90;;;;;;5077865;28;20438;-45
2023/04/11 01:13:11;;;;;;;2.33;2.13;;;14.50;99.90;;;;;;5078848;28;20429;-44
2023/04/11 01:15:37;;;;;;;1.87;1.70;;;14.50;99.90;;;;;;5078612;28;20526;-46
2023/04/11 01:18:04;;;;;;;2.33;1.93;;;14.50;99.90;;;;;;5078821;28;20458;-44
2023/04/11 01:20:30;;;;;;;2.60;2.17;;;14.40;99.90;;;;;;5078350;28;20177;-43
2023/04/11 01:22:57;;;;;;;4.10;1.73;;;14.40;99.90;;;;;;5080610;28;20814;-44
2023/04/11 01:25:23;;;;;;;2.13;1.93;;;14.40;99.90;;;;;;5098290;28;20754;-43
2023/04/11 01:27:48;;;;;;;3.60;2.33;;;14.40;99.90;;;;;;5099055;28;20418;-45
2023/04/11 01:30:15;;;;;;;1.93;1.73;;;14.40;99.90;;;;;;5098368;28;20267;-43
2023/04/11 01:32:41;;;;;;;2.23;1.83;;;14.40;99.90;;;;;;5098580;28;20313;-45
2023/04/11 01:35:08;;;;;;;3.20;2.10;;;14.40;99.90;;;;;;5098638;28;20500;-44
2023/04/11 01:37:39;;;;;;;2.77;2.33;;;14.40;99.90;;;;;;5097920;28;20684;-44
2023/04/11 01:40:07;;;;;;;2.20;2.00;;;14.40;99.90;;;;;;5099056;28;20490;-45
2023/04/11 01:42:33;;;;;;;4.07;2.20;;;14.40;99.90;;;;;;5098753;28;20465;-42
2023/04/11 01:44:59;;;;;;;4.03;3.63;;;14.30;99.90;;;;;;5097774;28;20487;-43
2023/04/11 01:47:25;;;;;;;4.53;2.20;;;14.30;1.00;;;;;;5097455;28;20750;-41
2023/04/11 01:49:52;;;;;;;2.27;1.90;;;14.30;1.00;;;;;;5098766;28;20509;-45
2023/04/11 01:52:18;;;;;;;1.50;1.40;;;14.30;1.00;;;;;;5098682;28;20185;-43
2023/04/11 01:54:43;;;;;;;2.47;2.27;;;14.20;1.00;;;;;;5097304;28;20850;-42
2023/04/11 01:57:09;;;;;;;2.97;2.67;;;14.20;1.00;;;;;;5098276;28;20249;-42
2023/04/11 01:59:35;;;;;;;3.43;2.70;;;14.10;1.00;;;;;;5098699;28;20201;-45
2023/04/11 02:02:00;;;;;;;2.70;1.93;;;14.10;1.00;;;;;;5098213;28;20215;-43
2023/04/11 02:04:26;;;;;;;2.67;2.10;;;14.00;1.00;;;;;;5097475;28;20172;-42
2023/04/11 02:06:52;;;;;;;2.90;1.87;;;13.90;1.00;;;;;;5097978;28;20176;-43
2023/04/11 02:09:17;;;;;;;4.53;2.33;;;13.80;22.30;;;;;;5098208;28;20188;-42
2023/04/11 02:11:43;;;;;;;3.60;2.30;;;13.80;99.90;;;;;;5098309;28;20323;-44
2023/04/11 02:14:09;;;;;;;4.23;1.90;;;13.70;99.90;;;;;;5097911;28;20179;-43
2023/04/11 02:16:51;;;;;;;2.40;2.20;;;13.60;1.00;;;;;;5098141;28;20180;-43
2023/04/11 02:19:17;;;;;;;2.60;2.20;;;13.60;1.00;;;;;;5096905;28;20218;-43
2023/04/11 02:21:44;;;;;;;1.97;1.77;;;13.50;99.90;;;;;;5097831;28;20430;-43
2023/04/11 02:24:10;;;;;;;2.97;2.00;;;13.40;1.00;;;;;;5097551;28;20430;-45
2023/04/11 02:26:36;;;;;;;3.67;2.13;;;13.30;1.00;;;;;;5097544;28;20406;-44
2023/04/11 02:29:01;;;;;;;2.20;1.80;;;13.20;91.30;;;;;;5096410;28;20242;-42
2023/04/11 02:31:28;;;;;;;2.30;1.40;;;13.10;99.90;;;;;;5095939;28;20245;-43
2023/04/11 02:33:53;;;;;;;2.07;1.23;;;13.10;99.90;;;;;;5097134;28;20184;-42
2023/04/11 02:36:19;;;;;;;1.60;0.70;;;13.00;1.00;;;;;;5096341;28;20429;-41
2023/04/11 02:38:45;;;;;;;2.47;1.10;;;12.90;1.00;;;;;;5096160;28;20212;-42
2023/04/11 02:41:10;;;;;;;2.20;1.20;;;12.90;1.00;;;;;;5096572;28;20483;-41
2023/04/11 02:43:36;;;;;;;1.50;0.80;;;12.80;1.00;;;;;;5096295;28;20189;-44
2023/04/11 02:46:02;;;;;;;2.00;0.73;;;12.80;1.00;;;;;;5096326;28;20266;-41
2023/04/11 02:48:28;;;;;;;1.00;0.70;;;12.70;1.00;;;;;;5095726;28;20192;-44
2023/04/11 02:50:53;;;;;;;1.10;0.70;;;12.70;1.00;;;;;;5094852;28;20569;-43
2023/04/11 02:53:20;;;;;;;1.53;1.00;;;12.60;1.00;;;;;;5096237;28;20211;-44
2023/04/11 02:55:45;;;;;;;3.27;0.70;;;12.60;1.00;;;;;;5095555;28;20443;-42
2023/04/11 02:58:16;;;;;;;1.97;1.00;;;12.50;1.00;;;;;;5096184;28;20469;-42
2023/04/11 03:00:42;;;;;;;1.43;0.83;;;12.50;1.00;;;;;;5096137;28;20329;-43
2023/04/11 03:03:08;;;;;;;1.10;0.80;;;12.40;1.00;;;;;;5096436;28;20426;-42
2023/04/11 03:05:34;;;;;;;2.00;0.83;;;12.40;1.00;;;;;;5096011;28;20449;-42
2023/04/11 03:08:00;;;;;;;1.40;0.83;;;12.40;1.00;;;;;;5096994;28;20204;-42
2023/04/11 03:10:26;;;;;;;4.00;0.60;;;12.30;1.00;;;;;;5095820;28;20414;-42
2023/04/11 03:12:51;;;;;;;1.30;0.60;;;12.30;1.00;;;;;;5094948;28;20183;-42
2023/04/11 03:15:17;;;;;;;2.50;0.70;;;12.30;1.00;;;;;;5095152;28;20558;-44
2023/04/11 03:17:43;;;;;;;2.70;0.70;;;12.20;1.00;;;;;;5095753;28;20286;-44
2023/04/11 03:20:12;;;;;;;2.90;0.90;;;12.20;1.00;;;;;;5096178;28;20220;-42
2023/04/11 03:22:38;;;;;;;1.20;0.63;;;12.20;1.00;;;;;;5097202;28;20600;-42
2023/04/11 03:25:05;;;;;;;2.97;0.90;;;12.20;1.00;;;;;;5097168;28;20413;-43
2023/04/11 03:27:31;;;;;;;1.80;1.33;;;12.20;1.00;;;;;;5097002;28;20426;-45
2023/04/11 03:29:56;;;;;;;2.43;2.20;;;12.20;1.00;;;;;;5095519;28;20604;-42
2023/04/11 03:32:22;;;;;;;2.30;2.10;;;12.10;1.10;;;;;;5100047;28;20184;-43
2023/04/11 03:34:49;;;;;;;2.10;1.50;;;12.20;1.00;;;;;;5101393;28;20457;-43
2023/04/11 03:37:15;;;;;;;2.17;1.50;;;12.20;17.90;;;;;;5099809;28;20430;-43
2023/04/11 03:39:40;;;;;;;1.87;1.33;;;12.10;13.60;;;;;;5101507;28;20453;-44
2023/04/11 03:42:06;;;;;;;1.40;1.30;;;12.10;1.00;;;;;;5099814;28;20269;-43
2023/04/11 03:44:32;;;;;;;2.27;2.07;;;12.10;1.00;;;;;;5101018;28;20203;-43
2023/04/11 03:46:58;;;;;;;2.50;2.30;;;12.10;1.00;;;;;;5099980;28;20169;-43
2023/04/11 03:49:23;;;;;;;2.30;2.10;;;12.10;1.00;;;;;;5100204;28;20196;-45
2023/04/11 03:51:49;;;;;;;4.53;2.47;;;12.10;6.20;;;;;;5098967;28;20172;-41
2023/04/11 03:54:15;;;;;;;2.17;1.77;;;12.10;43.80;;;;;;5098357;28;20176;-43
2023/04/11 03:56:40;;;;;;;1.80;1.63;;;12.10;48.60;;;;;;5098263;28;20417;-42
2023/04/11 03:59:06;;;;;;;3.03;1.30;;;12.10;88.70;;;;;;5098799;28;20296;-44
2023/04/11 04:01:32;;;;;;;3.27;1.10;;;12.10;99.90;;;;;;5098860;28;20428;-42
2023/04/11 04:03:59;;;;;;;2.70;0.80;;;12.00;99.90;;;;;;5098990;28;20181;-42
2023/04/11 04:06:25;;;;;;;1.00;0.80;;;12.00;82.50;;;;;;5099218;28;20410;-41
2023/04/11 04:08:51;;;;;;;1.50;0.80;;;12.00;49.40;;;;;;5096935;28;20646;-44
2023/04/11 04:11:17;;;;;;;2.83;0.60;;;12.00;44.40;;;;;;5096576;28;20483;-42
2023/04/11 04:13:42;;;;;;;2.20;1.30;;;12.00;45.90;;;;;;5097136;28;20456;-43
2023/04/11 04:16:08;;;;;;;1.80;1.00;;;11.90;27.40;;;;;;5097509;28;20643;-42
2023/04/11 04:18:34;;;;;;;1.60;1.00;;;11.90;91.80;;;;;;5098182;28;20674;-42
2023/04/11 04:20:59;;;;;;;2.60;1.00;;;11.90;99.90;;;;;;5097352;28;20490;-51
2023/04/11 04:23:25;;;;;;;2.63;1.73;;;11.90;99.90;;;;;;5097063;28;20582;-42
2023/04/11 04:25:51;;;;;;;2.00;1.03;;;11.80;99.90;;;;;;5096387;28;20177;-49
2023/04/11 04:28:21;;;;;;;1.73;0.70;;;11.70;99.90;;;;;;5096655;28;20181;-45
2023/04/11 04:30:52;;;;;;;2.20;0.80;;;11.70;99.90;;;;;;5096114;28;20686;-42
2023/04/11 04:33:19;;;;;;;1.83;0.67;;;11.70;1.00;;;;;;5098244;28;20533;-41
2023/04/11 04:35:45;;;;;;;1.67;0.67;;;11.70;99.90;;;;;;5097751;28;20407;-41
2023/04/11 04:38:16;;;;;;;33.57;14.00;;;11.60;99.90;;;;;;5097905;28;20571;-44
2023/04/11 04:40:45;;;;;;;44.63;14.30;;;11.70;76.40;;;;;;5098632;28;20184;-43
2023/04/11 04:43:16;;;;;;;27.17;11.23;;;12.10;99.90;;;;;;5096180;28;20434;-44
2023/04/11 04:45:44;;;;;;;20.13;9.03;;;12.50;99.90;;;;;;5098390;28;20406;-44
2023/04/11 04:48:11;;;;;;;19.43;7.77;;;12.90;1.00;;;;;;5097397;28;20422;-45
2023/04/11 04:50:37;;;;;;;21.97;7.30;;;13.20;1.00;;;;;;5096540;28;20409;-43
2023/04/11 04:53:03;;;;;;;9.93;4.63;;;13.50;1.00;;;;;;5093670;28;20418;-44
2023/04/11 04:55:29;;;;;;;6.83;2.60;;;13.80;1.00;;;;;;5094388;28;20208;-42
2023/04/11 04:57:54;;;;;;;2.93;1.70;;;13.90;1.00;;;;;;5095299;28;20227;-43
2023/04/11 05:00:20;;;;;;;1.77;1.00;;;13.80;1.00;;;;;;5094937;28;20509;-42
2023/04/11 05:02:46;;;;;;;1.63;0.80;;;13.50;1.00;;;;;;5095904;28;20547;-43
2023/04/11 05:05:12;;;;;;;1.30;0.70;;;13.20;1.00;;;;;;5096649;28;20486;-44
2023/04/11 05:07:38;;;;;;;1.50;1.00;;;13.00;1.00;;;;;;5094356;28;20176;-42
2023/04/11 05:10:04;;;;;;;1.97;0.77;;;12.70;1.00;;;;;;5094724;28;20482;-43
2023/04/11 05:12:30;;;;;;;2.80;1.57;;;12.50;1.00;;;;;;5095713;28;20184;-46
2023/04/11 05:14:55;;;;;;;1.53;0.77;;;12.30;1.00;;;;;;5093617;28;20421;-44
2023/04/11 05:17:22;;;;;;;1.83;0.57;;;12.00;1.00;;;;;;5092368;28;20513;-42
2023/04/11 05:19:48;;;;;;;1.93;0.70;;;11.90;1.00;;;;;;5094245;28;20300;-42
2023/04/11 05:22:14;;;;;;;1.20;0.50;;;11.70;1.00;;;;;;5093123;28;20426;-42
2023/04/11 05:24:40;;;;;;;1.20;0.50;;;11.60;1.00;;;;;;5093514;28;20414;-42
2023/04/11 05:27:05;;;;;;;1.20;0.60;;;11.40;1.00;;;;;;5096972;28;20491;-43
2023/04/11 05:29:31;;;;;;;1.30;0.50;;;11.30;7.10;;;;;;5094151;28;20574;-44
2023/04/11 05:31:57;;;;;;;1.70;0.90;;;11.20;3.40;;;;;;5091794;28;20446;-42
2023/04/11 05:34:22;;;;;;;2.03;0.77;;;11.10;39.50;;;;;;5095115;28;20188;-43
2023/04/11 05:36:48;;;;;;;3.60;0.80;;;11.00;99.90;;;;;;5095350;28;20207;-43
2023/04/11 05:39:14;;;;;;;1.20;0.50;;;11.00;98.00;;;;;;5095245;28;20261;-43
2023/04/11 05:41:40;;;;;;;2.37;0.63;;;10.90;97.60;;;;;;5094549;28;20334;-41
2023/04/11 05:44:06;;;;;;;2.00;0.70;;;10.90;99.90;;;;;;5094528;28;20743;-41
2023/04/11 05:46:36;;;;;;;1.80;0.73;;;10.80;99.90;;;;;;5093147;28;20406;-43
2023/04/11 05:49:02;;;;;;;2.30;0.90;;;10.80;99.90;;;;;;5093088;28;20203;-44
2023/04/11 05:51:27;;;;;;;2.63;1.20;;;10.70;99.90;;;;;;5093209;28;20505;-42
2023/04/11 05:53:53;;;;;;;2.07;0.70;;;10.70;99.90;;;;;;5091842;28;20525;-42
2023/04/11 05:56:19;;;;;;;1.60;0.90;;;10.70;99.90;;;;;;5092268;28;20783;-42
2023/04/11 05:58:46;;;;;;;1.60;0.60;;;10.70;99.90;;;;;;5091329;28;20223;-44
2023/04/11 06:01:13;;;;;;;1.60;0.80;;;10.70;99.90;;;;;;5092817;28;20411;-42
2023/04/11 06:03:39;;;;;;;2.27;1.00;;;10.60;99.90;;;;;;5095916;28;20480;-43
2023/04/11 06:06:05;;;;;;;1.80;0.70;;;10.60;99.90;;;;;;5093445;28;20418;-42
2023/04/11 06:08:30;;;;;;;2.33;0.63;;;10.60;99.90;;;;;;5093743;28;20438;-43
2023/04/11 06:10:56;;;;;;;2.60;1.03;;;10.60;99.90;;;;;;5092797;28;20410;-42
2023/04/11 06:13:22;;;;;;;2.60;0.60;;;10.60;99.90;;;;;;5093739;28;20188;-41
2023/04/11 06:15:48;;;;;;;1.83;0.93;;;10.60;99.90;;;;;;5096342;28;20179;-43
2023/04/11 06:18:13;;;;;;;2.10;0.70;;;10.60;99.90;;;;;;5096489;28;20176;-43
2023/04/11 06:20:39;;;;;;;3.23;1.00;;;10.60;99.90;;;;;;5096180;28;20180;-45
2023/04/11 06:23:05;;;;;;;1.93;0.80;;;10.60;99.90;;;;;;5096451;28;20199;-41
2023/04/11 06:25:30;;;;;;;1.77;0.70;;;10.60;99.90;;;;;;5096248;28;20179;-43
2023/04/11 06:27:56;;;;;;;3.10;1.07;;;10.60;99.90;;;;;;5096455;28;20180;-44
2023/04/11 06:30:22;;;;;;;1.97;0.90;;;10.60;99.90;;;;;;5093646;28;20248;-42
2023/04/11 06:32:47;;;;;;;1.57;0.80;;;10.60;99.90;;;;;;5093384;28;20254;-43
2023/04/11 06:35:13;;;;;;;2.03;0.60;;;10.60;99.90;;;;;;5093916;28;20271;-41
2023/04/11 06:37:41;;;;;;;1.83;0.80;;;10.60;99.90;;;;;;5093973;28;20284;-43
2023/04/11 06:40:07;;;;;;;2.00;1.27;;;10.60;99.90;;;;;;5091659;28;20210;-43
2023/04/11 06:42:33;;;;;;;3.90;1.10;;;10.60;99.90;;;;;;5091248;28;20422;-42
2023/04/11 06:45:03;;;;;;;1.50;0.87;;;10.70;99.90;;;;;;5094480;28;20880;-42
2023/04/11 06:47:29;;;;;;;2.40;0.93;;;10.70;99.90;;;;;;5089819;28;20771;-44
2023/04/11 06:49:55;;;;;;;2.63;0.93;;;10.80;99.90;;;;;;5089977;28;20453;-43
2023/04/11 06:52:21;;;;;;;1.40;0.60;;;10.90;99.90;;;;;;5090710;28;20177;-42
2023/04/11 06:54:47;;;;;;;3.07;0.60;;;11.00;97.50;;;;;;5093557;28;20414;-42
2023/04/11 06:57:13;;;;;;;1.67;0.70;;;11.00;17.80;;;;;;5095072;28;20264;-41
2023/04/11 06:59:39;;;;;;;3.23;0.83;;;11.00;1.00;;;;;;5094827;28;20552;-43
2023/04/11 07:02:04;;;;;;;2.50;0.93;;;11.00;1.00;;;;;;5094106;28;20438;-42
2023/04/11 07:04:30;;;;;;;2.03;0.87;;;11.00;1.00;;;;;;5094671;28;20175;-42
2023/04/11 07:06:55;;;;;;;3.10;0.87;;;11.10;1.00;;;;;;5097917;28;20169;-43
2023/04/11 07:09:21;;;;;;;2.17;1.10;;;11.20;1.00;;;;;;5096910;28;20504;-43
2023/04/11 07:11:47;;;;;;;1.30;0.73;;;11.30;1.00;;;;;;5096523;28;20502;-44
2023/04/11 07:14:13;;;;;;;2.20;0.80;;;11.40;1.00;;;;;;5095521;28;20526;-41
2023/04/11 07:16:38;;;;;;;2.70;0.80;;;11.50;1.00;;;;;;5098205;28;20199;-41
2023/04/11 07:19:04;;;;;;;1.50;0.63;;;11.60;1.00;;;;;;5099587;28;20258;-42
2023/04/11 07:21:31;;;;;;;2.13;1.00;;;11.70;1.00;;;;;;5097993;28;20570;-42
2023/04/11 07:23:56;;;;;;;4.17;0.93;;;11.70;99.90;;;;;;5098546;28;20422;-42
2023/04/11 07:26:22;;;;;;;4.33;1.00;;;11.70;99.90;;;;;;5100228;28;20406;-42
2023/04/11 07:28:48;;;;;;;2.23;0.70;;;11.70;99.90;;;;;;5098549;28;20482;-42
2023/04/11 07:31:16;;;;;;;3.20;0.90;;;11.60;99.90;;;;;;5097461;28;20202;-42
2023/04/11 07:33:42;;;;;;;3.10;0.90;;;11.60;99.90;;;;;;5097773;28;20184;-44
2023/04/11 07:36:08;;;;;;;1.50;0.77;;;11.60;99.90;;;;;;5098048;28;20491;-43
2023/04/11 07:38:36;;;;;;;2.03;0.70;;;11.60;99.90;;;;;;5098864;28;21129;-42
2023/04/11 07:41:02;;;;;;;2.90;1.23;;;11.60;99.90;;;;;;5098282;28;20407;-42
2023/04/11 07:43:28;;;;;;;3.20;1.00;;;11.80;99.90;;;;;;5098301;28;20423;-42
2023/04/11 07:45:55;;;;;;;2.57;1.10;;;12.10;99.90;;;;;;5099016;28;20433;-42
2023/04/11 07:48:21;;;;;;;2.57;1.23;;;12.60;99.90;;;;;;5097472;28;20556;-43
2023/04/11 07:50:47;;;;;;;3.10;1.00;;;13.00;99.90;;;;;;5099082;28;20410;-42
2023/04/11 07:53:13;;;;;;;2.30;1.20;;;13.40;64.70;;;;;;5099672;28;20516;-44
2023/04/11 07:55:39;;;;;;;2.90;1.20;;;13.70;7.40;;;;;;5100009;28;20563;-42
2023/04/11 07:58:06;;;;;;;1.67;1.20;;;14.00;1.00;;;;;;5078686;28;20242;-42
2023/04/11 08:00:32;;;;;;;4.70;1.30;;;14.50;1.00;;;;;;5075914;28;20450;-44
2023/04/11 08:03:08;;;;;;;8.63;2.10;;;15.10;1.00;;;;;;5076978;28;21062;-42
2023/04/11 08:05:35;;;;;;;2.40;1.17;;;15.60;1.00;;;;;;5078807;28;20426;-44
2023/04/11 08:08:03;;;;;;;2.40;1.03;;;16.00;1.00;;;;;;5076915;28;20518;-43
2023/04/11 08:10:29;;;;;;;4.43;1.50;;;16.20;1.00;;;;;;5076244;28;20412;-42
2023/04/11 08:12:55;;;;;;;3.97;1.73;;;16.30;1.00;;;;;;5076151;28;20422;-42
2023/04/11 08:15:21;;;;;;;4.90;1.20;;;16.30;1.00;;;;;;5077599;28;20418;-42
2023/04/11 08:17:48;;;;;;;3.80;1.30;;;16.20;1.00;;;;;;5076946;28;20744;-44
2023/04/11 08:20:14;;;;;;;4.60;1.20;;;16.00;1.00;;;;;;5076502;28;20224;-46
2023/04/11 08:22:43;;;;;;;4.50;1.10;;;15.90;1.00;;;;;;5077330;28;20466;-44
2023/04/11 08:25:10;;;;;;;3.67;1.37;;;15.70;1.00;;;;;;5077802;28;20697;-43
2023/04/11 08:27:37;;;;;;;2.50;1.07;;;15.50;1.00;;;;;;5078349;28;20441;-43
2023/04/11 08:30:04;;;;;;;3.80;1.40;;;15.40;1.00;;;;;;5077577;28;20471;-43
2023/04/11 08:32:31;;;;;;;3.20;1.50;;;15.30;1.00;;;;;;5077735;28;20474;-43
2023/04/11 08:34:57;;;;;;;2.80;1.80;;;15.20;1.00;;;;;;5060000;28;20446;-44
2023/04/11 08:37:22;;;;;;;3.20;1.20;;;15.10;1.00;;;;;;5076201;28;20485;-43
2023/04/11 08:39:48;;;;;;;2.63;1.37;;;15.10;1.00;;;;;;5077064;28;20200;-44
2023/04/11 08:42:25;;;;;;;2.83;1.40;;;15.20;1.00;;;;;;5074089;28;20181;-45
2023/04/11 08:45:07;;;;;;;3.13;1.43;;;15.40;1.00;;;;;;5074012;28;20772;-44
2023/04/11 08:47:33;;;;;;;2.23;0.97;;;15.60;1.00;;;;;;5073887;28;20956;-46
2023/04/11 08:50:05;;;;;;;3.70;1.30;;;15.70;1.00;;;;;;5075099;28;20506;-43
2023/04/11 08:52:32;;;;;;;3.40;1.40;;;15.80;1.00;;;;;;5075183;28;20481;-43
2023/04/11 08:54:58;;;;;;;4.47;1.57;;;15.90;1.00;;;;;;5060211;28;20423;-43
2023/04/11 08:57:30;;;;;;;1.90;1.10;;;16.20;1.00;;;;;;5078520;28;20523;-43
2023/04/11 08:59:59;;;;;;;4.63;1.53;;;16.60;1.00;;;;;;5076239;28;20485;-43
2023/04/11 09:02:26;;;;;;;3.20;1.47;;;17.00;1.00;;;;;;5075884;28;20435;-43
2023/04/11 09:04:52;;;;;;;2.10;1.10;;;17.40;1.00;;;;;;5072621;28;20813;-44
2023/04/11 09:07:18;;;;;;;6.10;1.67;;;17.80;1.00;;;;;;5071351;28;20435;-44
2023/04/11 09:09:44;;;;;;;3.43;1.27;;;18.00;1.00;;;;;;5072608;28;20177;-43
2023/04/11 09:12:12;;;;;;;8.57;2.43;;;18.10;1.00;;;;;;5073368;28;20442;-44
2023/04/11 09:14:38;;;;;;;2.87;1.27;;;18.20;1.00;;;;;;5071014;28;20816;-45
2023/04/11 09:17:12;;;;;;;2.37;1.30;;;18.30;1.00;;;;;;5071583;28;20456;-44
2023/04/11 09:19:39;;;;;;;6.93;1.77;;;18.30;1.00;;;;;;5074930;28;20216;-44
2023/04/11 09:22:06;;;;;;;2.33;1.17;;;18.30;1.00;;;;;;5072756;28;20431;-45
2023/04/11 09:24:32;;;;;;;4.10;1.60;;;18.40;1.00;;;;;;5074829;28;20411;-45
2023/04/11 09:27:15;;;;;;;2.73;1.50;;;18.70;1.00;;;;;;5075342;28;20721;-44
2023/04/11 09:29:45;;;;;;;4.53;1.43;;;18.80;1.00;;;;;;5072398;28;20244;-44
2023/04/11 09:32:33;;;;;;;3.77;1.13;;;18.90;1.00;;;;;;5072131;28;20451;-44
2023/04/11 09:35:17;;;;;;;3.57;1.20;;;19.10;1.00;;;;;;5070914;28;20590;-43
2023/04/11 09:37:57;;;;;;;3.70;1.23;;;19.10;1.00;;;;;;5072783;28;20423;-45
2023/04/11 09:40:30;;;;;;;4.00;1.50;;;19.10;1.00;;;;;;5070370;28;20474;-44
2023/04/11 09:43:03;;;;;;;3.30;1.50;;;18.90;1.00;;;;;;5070255;28;20428;-44
2023/04/11 09:45:29;;;;;;;3.73;1.47;;;18.70;1.00;;;;;;5072395;28;20499;-44
2023/04/11 09:47:57;;;;;;;2.97;1.60;;;18.60;1.00;;;;;;5073767;28;20423;-43
2023/04/11 09:50:23;;;;;;;2.73;1.27;;;18.50;1.00;;;;;;5071799;28;20526;-44
2023/04/11 09:52:51;;;;;;;4.80;1.33;;;18.20;1.00;;;;;;5069692;28;20435;-43
2023/04/11 09:55:19;;;;;;;3.00;1.67;;;18.20;1.00;;;;;;5072342;28;20495;-43
2023/04/11 09:57:47;;;;;;;3.73;1.47;;;18.20;1.00;;;;;;5074524;28;20738;-44
2023/04/11 10:00:29;;;;;;;2.10;1.50;;;18.60;1.00;;;;;;5072636;28;20455;-44
2023/04/11 10:02:55;;;;;;;5.43;1.20;;;18.80;1.00;;;;;;5072964;28;20876;-44
2023/04/11 10:05:25;;;;;;;3.47;1.80;;;19.30;1.00;;;;;;5072923;28;20793;-44
2023/04/11 10:08:02;;;;;;;3.57;1.53;;;19.70;1.00;;;;;;5073475;28;20466;-44
2023/04/11 10:10:28;;;;;;;4.47;1.10;;;20.10;1.00;;;;;;5073321;28;20426;-43
2023/04/11 10:12:54;;;;;;;3.00;1.07;;;20.30;1.00;;;;;;5073406;28;20494;-44
2023/04/11 10:15:21;;;;;;;2.53;0.93;;;20.60;1.00;;;;;;5072959;28;20868;-43
2023/04/11 10:18:09;;;;;;;4.90;1.50;;;21.00;1.00;;;;;;5093556;28;20206;-42
2023/04/11 10:20:36;;;;;;;1.80;1.13;;;21.30;1.00;;;;;;5092846;28;20407;-46
2023/04/11 10:23:03;;;;;;;2.47;1.10;;;21.70;1.00;;;;;;5095351;28;20445;-44
2023/04/11 10:25:30;;;;;;;4.47;1.17;;;21.80;1.00;;;;;;5094878;28;20800;-44
2023/04/11 10:28:02;;;;;;;2.87;1.10;;;22.00;1.00;;;;;;5094852;28;20542;-45
2023/04/11 10:30:40;;;;;;;2.20;1.27;;;22.30;1.00;;;;;;5083934;28;20732;-43
2023/04/11 10:33:16;;;;;;;3.70;1.40;;;22.40;1.00;;;;;;5095431;28;20852;-43
2023/04/11 10:36:09;;;;;;;4.50;1.60;;;22.60;1.00;;;;;;5095433;28;20871;-44
2023/04/11 10:38:47;;;;;;;2.43;1.10;;;22.80;1.00;;;;;;5093810;28;20485;-44
2023/04/11 10:41:16;;;;;;;3.73;1.37;;;22.70;1.00;;;;;;5093850;28;20706;-44
2023/04/11 10:43:42;;;;;;;4.37;1.60;;;22.50;99.90;;;;;;5093108;28;20586;-43
2023/04/11 10:46:22;;;;;;;4.60;1.63;;;22.20;1.00;;;;;;5127490;27;20528;-45
2023/04/11 10:49:00;;;;;;;6.13;1.97;;;22.00;99.90;;;;;;5094729;28;20434;-46
2023/04/11 10:51:30;;;;;;;2.60;1.50;;;21.50;99.90;;;;;;5094191;28;20553;-43
2023/04/11 10:54:00;;;;;;;2.60;1.83;;;21.20;99.90;;;;;;5093912;28;20865;-44
2023/04/11 10:56:51;;;;;;;3.23;1.60;;;21.00;99.90;;;;;;5094490;28;20880;-44
2023/04/11 10:59:33;;;;;;;5.73;1.23;;;21.10;99.90;;;;;;5091953;28;20466;-44
2023/04/11 11:02:00;;;;;;;2.50;1.23;;;21.20;99.90;;;;;;5104777;28;20505;-45
2023/04/11 11:04:33;;;;;;;2.87;1.40;;;21.30;99.90;;;;;;5113465;28;20478;-43
2023/04/11 11:07:01;;;;;;;3.27;1.50;;;21.60;99.90;;;;;;5114454;28;20719;-44
2023/04/11 11:09:27;;;;;;;3.20;1.10;;;21.90;99.90;;;;;;5116345;28;20460;-44
2023/04/11 11:12:10;;;;;;;3.00;1.73;;;22.20;99.90;;;;;;5115862;28;20438;-45
2023/04/11 11:14:36;;;;;;;3.00;1.30;;;22.40;99.90;;;;;;5116289;28;20483;-45
2023/04/11 11:17:03;;;;;;;4.00;1.90;;;22.70;99.90;;;;;;5104586;28;20436;-46
2023/04/11 11:19:32;;;;;;;3.83;1.60;;;23.10;99.90;;;;;;5093273;28;20466;-44
2023/04/11 11:22:05;;;;;;;4.73;1.60;;;23.60;99.90;;;;;;5091360;28;20825;-45
2023/04/11 11:24:30;;;;;;;2.87;1.33;;;24.30;99.90;;;;;;5095195;28;20419;-44
2023/04/11 11:26:57;;;;;;;3.10;1.40;;;24.80;1.00;;;;;;5093118;28;20519;-44
2023/04/11 11:29:32;;;;;;;4.10;2.43;;;25.20;99.90;;;;;;5091203;28;20228;-44
2023/04/11 11:31:59;;;;;;;3.30;1.60;;;25.30;99.90;;;;;;5084187;28;20434;-43
2023/04/11 11:34:30;;;;;;;3.50;1.60;;;25.10;99.90;;;;;;5087073;28;20697;-44
2023/04/11 11:36:57;;;;;;;4.10;1.40;;;24.60;99.90;;;;;;5092399;28;20708;-43
2023/04/11 11:39:23;;;;;;;2.93;1.23;;;24.50;99.90;;;;;;5093087;28;20551;-43
2023/04/11 11:41:50;;;;;;;6.50;2.00;;;24.70;99.90;;;;;;5089554;28;20818;-44
2023/04/11 11:44:26;;;;;;;3.10;1.70;;;25.00;99.90;;;;;;5085794;28;20501;-43
2023/04/11 11:47:08;;;;;;;2.70;1.13;;;25.00;99.90;;;;;;5072962;28;20403;-43
2023/04/11 11:49:51;;;;;;;2.80;1.17;;;24.90;99.90;;;;;;5082923;28;20450;-43
2023/04/11 11:52:32;;;;;;;2.43;1.40;;;24.70;99.90;;;;;;5093344;28;20444;-44
2023/04/11 11:54:59;;;;;;;2.80;1.80;;;24.70;99.90;;;;;;5094724;28;20418;-44
2023/04/11 11:57:26;;;;;;;2.47;1.30;;;25.20;99.90;;;;;;5095177;28;20419;-47
2023/04/11 11:59:56;;;;;;;3.50;1.77;;;25.50;99.90;;;;;;5096584;28;20457;-45
2023/04/11 12:02:22;;;;;;;3.63;1.73;;;25.70;99.90;;;;;;5095573;28;20496;-44
2023/04/11 12:04:48;;;;;;;3.50;1.40;;;25.90;99.90;;;;;;5095540;28;20406;-46
2023/04/11 12:07:20;;;;;;;4.33;1.60;;;25.90;99.90;;;;;;5096207;28;20433;-44
2023/04/11 12:10:06;;;;;;;2.40;1.37;;;25.60;99.90;;;;;;5095968;28;20192;-43
2023/04/11 12:12:36;;;;;;;2.53;1.30;;;25.80;99.90;;;;;;5096435;28;20410;-46
2023/04/11 12:15:12;;;;;;;4.20;1.50;;;25.70;99.90;;;;;;5074241;28;20496;-44
2023/04/11 12:17:38;;;;;;;3.00;1.87;;;26.00;99.90;;;;;;5073017;28;20478;-44
2023/04/11 12:20:09;;;;;;;4.13;1.80;;;26.30;99.90;;;;;;5079211;28;20559;-45
2023/04/11 12:22:36;;;;;;;3.70;1.67;;;26.50;99.90;;;;;;5095552;28;20457;-43
2023/04/11 12:25:09;;;;;;;4.10;1.90;;;26.50;99.90;;;;;;5096367;28;20443;-44
2023/04/11 12:27:40;;;;;;;4.37;1.67;;;26.30;99.90;;;;;;5093466;28;20530;-43
2023/04/11 12:30:08;;;;;;;2.17;1.20;;;26.20;99.90;;;;;;5094671;28;20485;-44
2023/04/11 12:32:34;;;;;;;2.47;1.30;;;26.10;99.90;;;;;;5094935;28;20442;-44
2023/04/11 12:35:04;;;;;;;5.23;1.60;;;26.00;99.90;;;;;;5095541;28;20414;-45
2023/04/11 12:37:31;;;;;;;2.93;1.43;;;25.70;99.90;;;;;;5095250;28;20430;-44
2023/04/11 12:39:56;;;;;;;3.10;1.70;;;25.50;99.90;;;;;;5093684;28;20492;-45
2023/04/11 12:42:22;;;;;;;3.67;1.67;;;25.40;99.90;;;;;;5095676;28;20677;-44
2023/04/11 12:44:49;;;;;;;2.50;1.27;;;25.20;99.90;;;;;;5095660;28;20265;-45
2023/04/11 12:47:15;;;;;;;4.50;1.57;;;25.20;99.90;;;;;;5094784;28;20168;-43
2023/04/11 12:49:41;;;;;;;4.90;1.87;;;25.10;99.90;;;;;;5094836;28;20600;-44
2023/04/11 12:52:08;;;;;;;3.50;1.67;;;25.10;99.90;;;;;;5093672;28;20414;-44
2023/04/11 12:54:34;;;;;;;2.67;1.70;;;25.00;99.90;;;;;;5092606;28;20199;-45